sensor_id;sensor_type;location;lat;lon;timestamp;temperature;humidity
10245;DHT22;5167;52.164;10.530;2022-09-09T00:00:59;17.50;98.20
10245;DHT22;5167;52.164;10.530;2022-09-09T00:03:32;17.50;97.00
10245;DHT22;5167;52.164;10.530;2022-09-09T00:06:11;17.40;96.90
10245;DHT22;5167;52.164;10.530;2022-09-09T00:11:19;17.50;96.30
10245;DHT22;5167;52.164;10.530;2022-09-09T00:13:52;17.50;96.70
10245;DHT22;5167;52.164;10.530;2022-09-09T00:16:28;17.50;96.50
10245;DHT22;5167;52.164;10.530;2022-09-09T00:24:26;17.50;95.20
10245;DHT22;5167;52.164;10.530;2022-09-09T00:26:59;17.50;94.90
10245;DHT22;5167;52.164;10.530;2022-09-09T00:32:13;17.50;95.00
10245;DHT22;5167;52.164;10.530;2022-09-09T00:35:03;17.60;93.90
10245;DHT22;5167;52.164;10.530;2022-09-09T00:37:31;17.50;92.90
10245;DHT22;5167;52.164;10.530;2022-09-09T00:40:00;17.50;92.00
10245;DHT22;5167;52.164;10.530;2022-09-09T00:42:42;17.60;90.00
10245;DHT22;5167;52.164;10.530;2022-09-09T00:45:56;17.50;90.70
10245;DHT22;5167;52.164;10.530;2022-09-09T00:48:17;17.60;91.00
10245;DHT22;5167;52.164;10.530;2022-09-09T00:51:07;17.60;89.20
10245;DHT22;5167;52.164;10.530;2022-09-09T00:56:27;17.50;90.80
10245;DHT22;5167;52.164;10.530;2022-09-09T01:01:36;17.50;89.50
10245;DHT22;5167;52.164;10.530;2022-09-09T01:04:04;17.60;89.30
10245;DHT22;5167;52.164;10.530;2022-09-09T01:06:36;17.60;90.10
10245;DHT22;5167;52.164;10.530;2022-09-09T01:09:13;17.50;89.50
10245;DHT22;5167;52.164;10.530;2022-09-09T01:14:39;17.50;88.60
10245;DHT22;5167;52.164;10.530;2022-09-09T01:19:55;17.50;87.50
10245;DHT22;5167;52.164;10.530;2022-09-09T01:22:37;17.40;87.40
10245;DHT22;5167;52.164;10.530;2022-09-09T01:28:18;17.40;84.30
10245;DHT22;5167;52.164;10.530;2022-09-09T01:30:44;17.40;83.60
10245;DHT22;5167;52.164;10.530;2022-09-09T01:33:16;17.40;83.10
10245;DHT22;5167;52.164;10.530;2022-09-09T01:35:46;17.30;82.80
10245;DHT22;5167;52.164;10.530;2022-09-09T01:38:14;17.40;82.40
10245;DHT22;5167;52.164;10.530;2022-09-09T01:40:40;17.30;81.60
10245;DHT22;5167;52.164;10.530;2022-09-09T01:43:06;17.30;81.50
10245;DHT22;5167;52.164;10.530;2022-09-09T01:45:33;17.20;81.00
10245;DHT22;5167;52.164;10.530;2022-09-09T01:47:59;17.20;81.40
10245;DHT22;5167;52.164;10.530;2022-09-09T01:50:26;17.20;82.00
10245;DHT22;5167;52.164;10.530;2022-09-09T01:52:57;17.20;81.80
10245;DHT22;5167;52.164;10.530;2022-09-09T01:55:38;17.10;82.90
10245;DHT22;5167;52.164;10.530;2022-09-09T01:58:31;17.10;82.40
10245;DHT22;5167;52.164;10.530;2022-09-09T02:03:33;17.10;83.60
10245;DHT22;5167;52.164;10.530;2022-09-09T02:09:02;17.10;84.40
10245;DHT22;5167;52.164;10.530;2022-09-09T02:11:29;17.00;83.40
10245;DHT22;5167;52.164;10.530;2022-09-09T02:14:12;17.00;83.60
10245;DHT22;5167;52.164;10.530;2022-09-09T02:21:52;17.00;84.70
10245;DHT22;5167;52.164;10.530;2022-09-09T02:24:19;16.90;84.10
10245;DHT22;5167;52.164;10.530;2022-09-09T02:26:47;17.00;84.70
10245;DHT22;5167;52.164;10.530;2022-09-09T02:29:17;16.90;85.70
10245;DHT22;5167;52.164;10.530;2022-09-09T02:31:46;16.80;85.90
10245;DHT22;5167;52.164;10.530;2022-09-09T02:34:14;16.80;85.70
10245;DHT22;5167;52.164;10.530;2022-09-09T02:36:43;16.80;86.40
10245;DHT22;5167;52.164;10.530;2022-09-09T02:39:11;16.80;86.40
10245;DHT22;5167;52.164;10.530;2022-09-09T02:41:39;16.80;86.30
10245;DHT22;5167;52.164;10.530;2022-09-09T02:44:16;16.80;87.50
10245;DHT22;5167;52.164;10.530;2022-09-09T02:52:30;16.70;88.20
10245;DHT22;5167;52.164;10.530;2022-09-09T02:55:04;16.80;88.90
10245;DHT22;5167;52.164;10.530;2022-09-09T02:57:31;16.70;89.00
10245;DHT22;5167;52.164;10.530;2022-09-09T02:59:59;16.70;89.10
10245;DHT22;5167;52.164;10.530;2022-09-09T03:02:25;16.70;88.90
10245;DHT22;5167;52.164;10.530;2022-09-09T03:04:51;16.80;89.00
10245;DHT22;5167;52.164;10.530;2022-09-09T03:07:18;16.70;88.90
10245;DHT22;5167;52.164;10.530;2022-09-09T03:09:44;16.70;89.20
10245;DHT22;5167;52.164;10.530;2022-09-09T03:12:10;16.70;89.10
10245;DHT22;5167;52.164;10.530;2022-09-09T03:14:38;16.70;89.30
10245;DHT22;5167;52.164;10.530;2022-09-09T03:17:05;16.70;89.20
10245;DHT22;5167;52.164;10.530;2022-09-09T03:19:31;16.60;89.70
10245;DHT22;5167;52.164;10.530;2022-09-09T03:21:57;16.70;89.40
10245;DHT22;5167;52.164;10.530;2022-09-09T03:24:24;16.70;90.10
10245;DHT22;5167;52.164;10.530;2022-09-09T03:26:50;16.60;90.70
10245;DHT22;5167;52.164;10.530;2022-09-09T03:29:16;16.70;90.60
10245;DHT22;5167;52.164;10.530;2022-09-09T03:31:42;16.70;91.40
10245;DHT22;5167;52.164;10.530;2022-09-09T03:34:08;16.70;91.30
10245;DHT22;5167;52.164;10.530;2022-09-09T03:36:34;16.70;92.00
10245;DHT22;5167;52.164;10.530;2022-09-09T03:38:59;16.60;92.90
10245;DHT22;5167;52.164;10.530;2022-09-09T03:41:26;16.70;93.10
10245;DHT22;5167;52.164;10.530;2022-09-09T03:43:53;16.60;93.80
10245;DHT22;5167;52.164;10.530;2022-09-09T03:46:20;16.60;93.90
10245;DHT22;5167;52.164;10.530;2022-09-09T03:48:46;16.60;95.30
10245;DHT22;5167;52.164;10.530;2022-09-09T03:51:12;16.70;96.00
10245;DHT22;5167;52.164;10.530;2022-09-09T03:53:38;16.60;97.30
10245;DHT22;5167;52.164;10.530;2022-09-09T03:56:05;16.70;98.30
10245;DHT22;5167;52.164;10.530;2022-09-09T03:58:36;16.60;99.90
10245;DHT22;5167;52.164;10.530;2022-09-09T04:01:05;16.60;99.90
10245;DHT22;5167;52.164;10.530;2022-09-09T04:03:31;16.70;99.90
10245;DHT22;5167;52.164;10.530;2022-09-09T04:05:58;16.70;99.90
10245;DHT22;5167;52.164;10.530;2022-09-09T04:08:25;16.70;99.90
10245;DHT22;5167;52.164;10.530;2022-09-09T04:10:51;16.70;99.90
10245;DHT22;5167;52.164;10.530;2022-09-09T04:13:17;16.80;99.90
10245;DHT22;5167;52.164;10.530;2022-09-09T04:15:44;16.70;99.90
10245;DHT22;5167;52.164;10.530;2022-09-09T04:18:10;16.70;99.90
10245;DHT22;5167;52.164;10.530;2022-09-09T04:20:37;16.70;99.90
10245;DHT22;5167;52.164;10.530;2022-09-09T04:23:03;16.70;99.90
10245;DHT22;5167;52.164;10.530;2022-09-09T04:25:29;16.70;99.90
10245;DHT22;5167;52.164;10.530;2022-09-09T04:27:57;16.70;99.90
10245;DHT22;5167;52.164;10.530;2022-09-09T04:30:24;16.80;99.90
10245;DHT22;5167;52.164;10.530;2022-09-09T04:32:50;16.80;99.90
10245;DHT22;5167;52.164;10.530;2022-09-09T04:35:16;16.80;99.90
10245;DHT22;5167;52.164;10.530;2022-09-09T04:37:42;16.90;99.90
10245;DHT22;5167;52.164;10.530;2022-09-09T04:40:08;16.90;99.90
10245;DHT22;5167;52.164;10.530;2022-09-09T04:42:38;17.00;99.90
10245;DHT22;5167;52.164;10.530;2022-09-09T04:45:05;16.90;99.90
10245;DHT22;5167;52.164;10.530;2022-09-09T04:47:31;16.90;99.90
10245;DHT22;5167;52.164;10.530;2022-09-09T04:49:57;16.90;99.90
10245;DHT22;5167;52.164;10.530;2022-09-09T04:52:22;16.90;99.90
10245;DHT22;5167;52.164;10.530;2022-09-09T04:54:48;16.90;99.90
10245;DHT22;5167;52.164;10.530;2022-09-09T04:57:14;17.00;99.90
10245;DHT22;5167;52.164;10.530;2022-09-09T04:59:39;17.00;99.90
10245;DHT22;5167;52.164;10.530;2022-09-09T05:02:05;17.00;99.90
10245;DHT22;5167;52.164;10.530;2022-09-09T05:04:31;17.10;99.90
10245;DHT22;5167;52.164;10.530;2022-09-09T05:06:58;17.00;99.90
10245;DHT22;5167;52.164;10.530;2022-09-09T05:09:24;17.10;99.90
10245;DHT22;5167;52.164;10.530;2022-09-09T05:11:50;17.10;99.90
10245;DHT22;5167;52.164;10.530;2022-09-09T05:14:16;17.10;99.90
10245;DHT22;5167;52.164;10.530;2022-09-09T05:16:44;17.20;99.90
10245;DHT22;5167;52.164;10.530;2022-09-09T05:19:10;17.20;99.90
10245;DHT22;5167;52.164;10.530;2022-09-09T05:21:35;17.20;99.90
10245;DHT22;5167;52.164;10.530;2022-09-09T05:24:01;17.20;99.90
10245;DHT22;5167;52.164;10.530;2022-09-09T05:26:27;17.20;99.90
10245;DHT22;5167;52.164;10.530;2022-09-09T05:28:54;17.30;99.90
10245;DHT22;5167;52.164;10.530;2022-09-09T05:31:20;17.30;99.90
10245;DHT22;5167;52.164;10.530;2022-09-09T05:33:47;17.40;99.90
10245;DHT22;5167;52.164;10.530;2022-09-09T05:36:16;17.30;99.90
10245;DHT22;5167;52.164;10.530;2022-09-09T05:38:43;17.40;99.90
10245;DHT22;5167;52.164;10.530;2022-09-09T05:41:10;17.40;99.90
10245;DHT22;5167;52.164;10.530;2022-09-09T05:43:41;17.40;99.90
10245;DHT22;5167;52.164;10.530;2022-09-09T05:46:08;17.40;99.90
10245;DHT22;5167;52.164;10.530;2022-09-09T05:48:40;17.50;99.90
10245;DHT22;5167;52.164;10.530;2022-09-09T05:51:08;17.40;99.90
10245;DHT22;5167;52.164;10.530;2022-09-09T05:53:34;17.40;99.90
10245;DHT22;5167;52.164;10.530;2022-09-09T05:56:05;17.50;99.90
10245;DHT22;5167;52.164;10.530;2022-09-09T05:58:32;17.60;99.90
10245;DHT22;5167;52.164;10.530;2022-09-09T06:01:24;17.60;99.90
10245;DHT22;5167;52.164;10.530;2022-09-09T06:03:51;17.70;99.90
10245;DHT22;5167;52.164;10.530;2022-09-09T06:06:20;17.70;99.90
10245;DHT22;5167;52.164;10.530;2022-09-09T06:08:46;17.80;99.90
10245;DHT22;5167;52.164;10.530;2022-09-09T06:13:38;17.80;99.90
10245;DHT22;5167;52.164;10.530;2022-09-09T06:16:09;17.80;99.90
10245;DHT22;5167;52.164;10.530;2022-09-09T06:18:37;17.90;99.90
10245;DHT22;5167;52.164;10.530;2022-09-09T06:21:05;17.90;99.90
10245;DHT22;5167;52.164;10.530;2022-09-09T06:23:33;17.90;99.90
10245;DHT22;5167;52.164;10.530;2022-09-09T06:26:11;18.10;99.90
10245;DHT22;5167;52.164;10.530;2022-09-09T06:28:38;18.10;99.90
10245;DHT22;5167;52.164;10.530;2022-09-09T06:31:06;18.20;99.90
10245;DHT22;5167;52.164;10.530;2022-09-09T06:33:35;18.20;99.90
10245;DHT22;5167;52.164;10.530;2022-09-09T06:36:02;18.30;99.90
10245;DHT22;5167;52.164;10.530;2022-09-09T06:38:29;18.40;99.90
10245;DHT22;5167;52.164;10.530;2022-09-09T06:40:55;18.50;99.90
10245;DHT22;5167;52.164;10.530;2022-09-09T06:43:22;18.60;99.90
10245;DHT22;5167;52.164;10.530;2022-09-09T06:45:54;18.70;99.90
10245;DHT22;5167;52.164;10.530;2022-09-09T06:48:20;18.60;99.90
10245;DHT22;5167;52.164;10.530;2022-09-09T06:50:46;18.70;99.90
10245;DHT22;5167;52.164;10.530;2022-09-09T06:53:12;18.80;99.90
10245;DHT22;5167;52.164;10.530;2022-09-09T06:55:40;19.00;99.90
10245;DHT22;5167;52.164;10.530;2022-09-09T06:58:10;18.90;99.90
10245;DHT22;5167;52.164;10.530;2022-09-09T07:00:36;19.20;99.90
10245;DHT22;5167;52.164;10.530;2022-09-09T07:03:04;19.40;99.90
10245;DHT22;5167;52.164;10.530;2022-09-09T07:05:30;19.60;99.90
10245;DHT22;5167;52.164;10.530;2022-09-09T07:07:56;19.70;99.90
10245;DHT22;5167;52.164;10.530;2022-09-09T07:10:21;19.80;92.80
10245;DHT22;5167;52.164;10.530;2022-09-09T07:12:51;19.90;87.40
10245;DHT22;5167;52.164;10.530;2022-09-09T07:15:17;19.90;82.20
10245;DHT22;5167;52.164;10.530;2022-09-09T07:17:44;20.00;79.30
10245;DHT22;5167;52.164;10.530;2022-09-09T07:20:10;20.10;73.40
10245;DHT22;5167;52.164;10.530;2022-09-09T07:22:36;20.20;71.60
10245;DHT22;5167;52.164;10.530;2022-09-09T07:25:02;20.40;67.50
10245;DHT22;5167;52.164;10.530;2022-09-09T07:27:28;20.60;65.00
10245;DHT22;5167;52.164;10.530;2022-09-09T07:29:54;20.70;61.10
10245;DHT22;5167;52.164;10.530;2022-09-09T07:32:19;20.80;58.50
10245;DHT22;5167;52.164;10.530;2022-09-09T07:34:45;20.90;53.00
10245;DHT22;5167;52.164;10.530;2022-09-09T07:37:15;21.00;50.00
10245;DHT22;5167;52.164;10.530;2022-09-09T07:39:41;21.00;48.00
10245;DHT22;5167;52.164;10.530;2022-09-09T07:42:07;21.00;46.50
10245;DHT22;5167;52.164;10.530;2022-09-09T07:44:36;21.00;45.10
10245;DHT22;5167;52.164;10.530;2022-09-09T07:47:05;21.00;44.50
10245;DHT22;5167;52.164;10.530;2022-09-09T07:49:30;20.90;44.70
10245;DHT22;5167;52.164;10.530;2022-09-09T07:51:57;21.00;45.20
10245;DHT22;5167;52.164;10.530;2022-09-09T07:54:23;21.00;44.10
10245;DHT22;5167;52.164;10.530;2022-09-09T07:56:49;21.10;45.10
10245;DHT22;5167;52.164;10.530;2022-09-09T07:59:15;21.20;45.90
10245;DHT22;5167;52.164;10.530;2022-09-09T08:01:43;21.40;42.50
10245;DHT22;5167;52.164;10.530;2022-09-09T08:04:15;21.50;43.90
10245;DHT22;5167;52.164;10.530;2022-09-09T08:07:02;21.60;42.30
10245;DHT22;5167;52.164;10.530;2022-09-09T08:09:28;21.70;36.80
10245;DHT22;5167;52.164;10.530;2022-09-09T08:11:56;21.80;33.80
10245;DHT22;5167;52.164;10.530;2022-09-09T08:14:22;21.80;35.80
10245;DHT22;5167;52.164;10.530;2022-09-09T08:16:49;21.90;31.60
10245;DHT22;5167;52.164;10.530;2022-09-09T08:19:15;21.90;29.30
10245;DHT22;5167;52.164;10.530;2022-09-09T08:21:42;21.90;29.50
10245;DHT22;5167;52.164;10.530;2022-09-09T08:24:09;21.90;27.30
10245;DHT22;5167;52.164;10.530;2022-09-09T08:26:41;21.90;27.90
10245;DHT22;5167;52.164;10.530;2022-09-09T08:29:08;22.00;27.00
10245;DHT22;5167;52.164;10.530;2022-09-09T08:31:38;22.10;26.60
10245;DHT22;5167;52.164;10.530;2022-09-09T08:34:05;22.20;26.80
10245;DHT22;5167;52.164;10.530;2022-09-09T08:36:37;22.40;27.20
10245;DHT22;5167;52.164;10.530;2022-09-09T08:39:06;22.50;25.90
10245;DHT22;5167;52.164;10.530;2022-09-09T08:47:43;22.70;23.40
10245;DHT22;5167;52.164;10.530;2022-09-09T08:50:32;22.70;20.80
10245;DHT22;5167;52.164;10.530;2022-09-09T08:58:23;22.80;17.80
10245;DHT22;5167;52.164;10.530;2022-09-09T09:11:45;23.10;17.00
10245;DHT22;5167;52.164;10.530;2022-09-09T09:14:19;23.30;16.00
10245;DHT22;5167;52.164;10.530;2022-09-09T09:19:20;23.40;15.20
10245;DHT22;5167;52.164;10.530;2022-09-09T09:21:59;23.40;11.90
10245;DHT22;5167;52.164;10.530;2022-09-09T09:24:54;23.50;11.20
10245;DHT22;5167;52.164;10.530;2022-09-09T09:30:14;23.50;12.20
10245;DHT22;5167;52.164;10.530;2022-09-09T09:32:50;23.50;13.30
10245;DHT22;5167;52.164;10.530;2022-09-09T09:35:23;23.70;14.00
10245;DHT22;5167;52.164;10.530;2022-09-09T09:37:49;23.80;13.70
10245;DHT22;5167;52.164;10.530;2022-09-09T09:40:18;24.00;13.80
10245;DHT22;5167;52.164;10.530;2022-09-09T09:42:58;24.10;11.40
10245;DHT22;5167;52.164;10.530;2022-09-09T09:45:29;24.20;9.40
10245;DHT22;5167;52.164;10.530;2022-09-09T09:48:05;24.30;7.60
10245;DHT22;5167;52.164;10.530;2022-09-09T09:50:32;24.40;6.60
10245;DHT22;5167;52.164;10.530;2022-09-09T09:53:01;24.40;6.70
10245;DHT22;5167;52.164;10.530;2022-09-09T09:55:29;24.40;6.80
10245;DHT22;5167;52.164;10.530;2022-09-09T09:58:06;24.30;6.00
10245;DHT22;5167;52.164;10.530;2022-09-09T10:00:48;24.40;8.00
10245;DHT22;5167;52.164;10.530;2022-09-09T10:05:50;24.40;5.60
10245;DHT22;5167;52.164;10.530;2022-09-09T10:08:17;24.40;5.00
10245;DHT22;5167;52.164;10.530;2022-09-09T10:11:52;24.40;5.00
10245;DHT22;5167;52.164;10.530;2022-09-09T10:14:20;24.40;5.20
10245;DHT22;5167;52.164;10.530;2022-09-09T10:19:36;24.60;9.30
10245;DHT22;5167;52.164;10.530;2022-09-09T10:35:47;24.80;5.00
10245;DHT22;5167;52.164;10.530;2022-09-09T10:41:16;25.10;5.00
10245;DHT22;5167;52.164;10.530;2022-09-09T10:44:18;25.20;5.00
10245;DHT22;5167;52.164;10.530;2022-09-09T10:49:57;25.10;5.00
10245;DHT22;5167;52.164;10.530;2022-09-09T10:52:37;24.90;5.00
10245;DHT22;5167;52.164;10.530;2022-09-09T10:55:10;24.70;5.00
10245;DHT22;5167;52.164;10.530;2022-09-09T10:57:48;24.60;5.00
10245;DHT22;5167;52.164;10.530;2022-09-09T11:02:58;24.40;5.00
10245;DHT22;5167;52.164;10.530;2022-09-09T11:05:30;24.50;5.00
10245;DHT22;5167;52.164;10.530;2022-09-09T11:08:14;24.40;5.00
10245;DHT22;5167;52.164;10.530;2022-09-09T11:13:19;24.40;5.00
10245;DHT22;5167;52.164;10.530;2022-09-09T11:15:50;24.50;5.00
10245;DHT22;5167;52.164;10.530;2022-09-09T11:18:21;24.70;5.00
10245;DHT22;5167;52.164;10.530;2022-09-09T11:20:52;24.70;5.00
10245;DHT22;5167;52.164;10.530;2022-09-09T11:23:26;24.90;5.00
10245;DHT22;5167;52.164;10.530;2022-09-09T11:25:56;25.00;5.00
10245;DHT22;5167;52.164;10.530;2022-09-09T11:34:02;25.50;5.00
10245;DHT22;5167;52.164;10.530;2022-09-09T11:37:06;25.60;5.00
10245;DHT22;5167;52.164;10.530;2022-09-09T11:39:51;25.90;5.00
10245;DHT22;5167;52.164;10.530;2022-09-09T11:42:22;25.90;5.00
10245;DHT22;5167;52.164;10.530;2022-09-09T11:44:49;25.90;5.00
10245;DHT22;5167;52.164;10.530;2022-09-09T11:47:28;25.90;5.00
10245;DHT22;5167;52.164;10.530;2022-09-09T11:50:28;25.80;5.00
10245;DHT22;5167;52.164;10.530;2022-09-09T11:55:39;25.70;5.00
10245;DHT22;5167;52.164;10.530;2022-09-09T12:00:39;25.50;5.00
10245;DHT22;5167;52.164;10.530;2022-09-09T12:03:45;25.50;5.00
10245;DHT22;5167;52.164;10.530;2022-09-09T12:08:48;25.30;5.00
10245;DHT22;5167;52.164;10.530;2022-09-09T12:11:27;25.20;5.00
10245;DHT22;5167;52.164;10.530;2022-09-09T12:13:55;25.20;5.00
10245;DHT22;5167;52.164;10.530;2022-09-09T12:16:36;25.20;5.00
10245;DHT22;5167;52.164;10.530;2022-09-09T12:19:21;25.20;5.00
10245;DHT22;5167;52.164;10.530;2022-09-09T12:22:22;25.10;5.00
10245;DHT22;5167;52.164;10.530;2022-09-09T12:27:43;25.20;5.00
10245;DHT22;5167;52.164;10.530;2022-09-09T12:30:14;25.30;5.00
10245;DHT22;5167;52.164;10.530;2022-09-09T12:32:40;25.30;5.00
10245;DHT22;5167;52.164;10.530;2022-09-09T12:35:18;25.20;5.00
10245;DHT22;5167;52.164;10.530;2022-09-09T12:40:21;25.30;5.00
10245;DHT22;5167;52.164;10.530;2022-09-09T12:42:48;25.30;5.00
10245;DHT22;5167;52.164;10.530;2022-09-09T12:45:21;25.30;5.00
10245;DHT22;5167;52.164;10.530;2022-09-09T12:48:08;25.40;5.00
10245;DHT22;5167;52.164;10.530;2022-09-09T12:50:42;25.50;5.00
10245;DHT22;5167;52.164;10.530;2022-09-09T12:53:31;25.50;5.00
10245;DHT22;5167;52.164;10.530;2022-09-09T12:58:23;25.50;5.00
10245;DHT22;5167;52.164;10.530;2022-09-09T13:00:52;25.60;5.00
10245;DHT22;5167;52.164;10.530;2022-09-09T13:03:20;25.60;5.00
10245;DHT22;5167;52.164;10.530;2022-09-09T13:05:46;25.70;5.00
10245;DHT22;5167;52.164;10.530;2022-09-09T13:08:14;25.70;5.00
10245;DHT22;5167;52.164;10.530;2022-09-09T13:10:52;25.70;5.00
10245;DHT22;5167;52.164;10.530;2022-09-09T13:13:27;25.70;5.00
10245;DHT22;5167;52.164;10.530;2022-09-09T13:15:57;25.70;5.00
10245;DHT22;5167;52.164;10.530;2022-09-09T13:18:28;25.70;5.00
10245;DHT22;5167;52.164;10.530;2022-09-09T13:20:55;25.80;5.00
10245;DHT22;5167;52.164;10.530;2022-09-09T13:23:27;25.80;5.00
10245;DHT22;5167;52.164;10.530;2022-09-09T13:25:57;25.70;5.00
10245;DHT22;5167;52.164;10.530;2022-09-09T13:28:27;25.70;5.00
10245;DHT22;5167;52.164;10.530;2022-09-09T13:30:58;25.70;5.00
10245;DHT22;5167;52.164;10.530;2022-09-09T13:33:38;25.70;5.00
10245;DHT22;5167;52.164;10.530;2022-09-09T13:36:09;25.70;5.00
10245;DHT22;5167;52.164;10.530;2022-09-09T13:41:06;25.70;5.00
10245;DHT22;5167;52.164;10.530;2022-09-09T13:43:36;25.70;5.00
10245;DHT22;5167;52.164;10.530;2022-09-09T13:46:04;25.60;5.00
10245;DHT22;5167;52.164;10.530;2022-09-09T13:48:31;25.50;5.00
10245;DHT22;5167;52.164;10.530;2022-09-09T13:50:59;25.50;5.00
10245;DHT22;5167;52.164;10.530;2022-09-09T13:53:25;25.40;5.00
10245;DHT22;5167;52.164;10.530;2022-09-09T13:55:51;25.50;5.00
10245;DHT22;5167;52.164;10.530;2022-09-09T13:58:18;25.50;5.00
10245;DHT22;5167;52.164;10.530;2022-09-09T14:00:44;25.50;5.00
10245;DHT22;5167;52.164;10.530;2022-09-09T14:03:10;25.50;5.00
10245;DHT22;5167;52.164;10.530;2022-09-09T14:05:36;25.50;5.00
10245;DHT22;5167;52.164;10.530;2022-09-09T14:08:07;25.50;5.00
10245;DHT22;5167;52.164;10.530;2022-09-09T14:10:33;25.40;5.00
10245;DHT22;5167;52.164;10.530;2022-09-09T14:13:02;25.50;5.00
10245;DHT22;5167;52.164;10.530;2022-09-09T14:15:28;25.40;5.00
10245;DHT22;5167;52.164;10.530;2022-09-09T14:17:54;25.30;5.00
10245;DHT22;5167;52.164;10.530;2022-09-09T14:20:20;25.30;5.00
10245;DHT22;5167;52.164;10.530;2022-09-09T14:22:46;25.20;5.00
10245;DHT22;5167;52.164;10.530;2022-09-09T14:25:12;25.20;5.00
10245;DHT22;5167;52.164;10.530;2022-09-09T14:27:40;25.20;5.00
10245;DHT22;5167;52.164;10.530;2022-09-09T14:30:08;25.00;5.00
10245;DHT22;5167;52.164;10.530;2022-09-09T14:32:34;25.00;5.00
10245;DHT22;5167;52.164;10.530;2022-09-09T14:34:59;24.80;5.00
10245;DHT22;5167;52.164;10.530;2022-09-09T14:37:25;24.80;5.00
10245;DHT22;5167;52.164;10.530;2022-09-09T14:39:51;24.70;5.00
10245;DHT22;5167;52.164;10.530;2022-09-09T14:42:17;24.60;5.00
10245;DHT22;5167;52.164;10.530;2022-09-09T14:44:44;24.50;5.00
10245;DHT22;5167;52.164;10.530;2022-09-09T14:47:09;24.40;5.00
10245;DHT22;5167;52.164;10.530;2022-09-09T14:49:36;24.30;5.00
10245;DHT22;5167;52.164;10.530;2022-09-09T14:52:02;24.20;5.00
10245;DHT22;5167;52.164;10.530;2022-09-09T14:54:28;24.20;5.00
10245;DHT22;5167;52.164;10.530;2022-09-09T14:56:54;24.10;5.00
10245;DHT22;5167;52.164;10.530;2022-09-09T14:59:20;24.10;5.00
10245;DHT22;5167;52.164;10.530;2022-09-09T15:01:45;24.00;5.00
10245;DHT22;5167;52.164;10.530;2022-09-09T15:04:12;23.90;5.00
10245;DHT22;5167;52.164;10.530;2022-09-09T15:06:39;23.90;5.00
10245;DHT22;5167;52.164;10.530;2022-09-09T15:09:05;23.90;5.00
10245;DHT22;5167;52.164;10.530;2022-09-09T15:11:34;23.80;5.00
10245;DHT22;5167;52.164;10.530;2022-09-09T15:14:03;23.80;5.00
10245;DHT22;5167;52.164;10.530;2022-09-09T15:16:29;23.80;5.00
10245;DHT22;5167;52.164;10.530;2022-09-09T15:18:59;23.70;5.00
10245;DHT22;5167;52.164;10.530;2022-09-09T15:21:31;23.70;5.00
10245;DHT22;5167;52.164;10.530;2022-09-09T15:23:57;23.70;5.00
10245;DHT22;5167;52.164;10.530;2022-09-09T15:26:23;23.70;5.00
10245;DHT22;5167;52.164;10.530;2022-09-09T15:28:49;23.70;5.00
10245;DHT22;5167;52.164;10.530;2022-09-09T15:31:26;23.60;5.00
10245;DHT22;5167;52.164;10.530;2022-09-09T15:33:58;23.60;5.00
10245;DHT22;5167;52.164;10.530;2022-09-09T15:36:36;23.70;5.00
10245;DHT22;5167;52.164;10.530;2022-09-09T15:39:04;23.70;5.00
10245;DHT22;5167;52.164;10.530;2022-09-09T15:41:30;23.70;5.00
10245;DHT22;5167;52.164;10.530;2022-09-09T15:43:59;23.70;5.00
10245;DHT22;5167;52.164;10.530;2022-09-09T15:46:37;23.70;5.00
10245;DHT22;5167;52.164;10.530;2022-09-09T15:51:34;23.70;5.00
10245;DHT22;5167;52.164;10.530;2022-09-09T15:54:00;23.70;5.00
10245;DHT22;5167;52.164;10.530;2022-09-09T15:56:27;23.70;5.00
10245;DHT22;5167;52.164;10.530;2022-09-09T15:58:54;23.70;5.00
10245;DHT22;5167;52.164;10.530;2022-09-09T16:01:20;23.80;5.00
10245;DHT22;5167;52.164;10.530;2022-09-09T16:03:46;23.80;5.00
10245;DHT22;5167;52.164;10.530;2022-09-09T16:06:17;23.80;5.00
10245;DHT22;5167;52.164;10.530;2022-09-09T16:08:44;23.80;5.00
10245;DHT22;5167;52.164;10.530;2022-09-09T16:11:13;23.80;5.00
10245;DHT22;5167;52.164;10.530;2022-09-09T16:13:41;23.80;5.00
10245;DHT22;5167;52.164;10.530;2022-09-09T16:16:08;23.90;5.00
10245;DHT22;5167;52.164;10.530;2022-09-09T16:18:42;23.80;5.00
10245;DHT22;5167;52.164;10.530;2022-09-09T16:21:14;23.80;5.00
10245;DHT22;5167;52.164;10.530;2022-09-09T16:23:41;23.80;5.00
10245;DHT22;5167;52.164;10.530;2022-09-09T16:26:11;23.80;5.00
10245;DHT22;5167;52.164;10.530;2022-09-09T16:28:37;23.80;5.00
10245;DHT22;5167;52.164;10.530;2022-09-09T16:31:23;23.80;5.00
10245;DHT22;5167;52.164;10.530;2022-09-09T16:33:49;23.80;5.00
10245;DHT22;5167;52.164;10.530;2022-09-09T16:36:18;23.80;5.00
10245;DHT22;5167;52.164;10.530;2022-09-09T16:38:44;23.80;5.00
10245;DHT22;5167;52.164;10.530;2022-09-09T16:41:12;23.80;5.00
10245;DHT22;5167;52.164;10.530;2022-09-09T16:43:38;23.70;5.00
10245;DHT22;5167;52.164;10.530;2022-09-09T16:46:16;23.70;5.00
10245;DHT22;5167;52.164;10.530;2022-09-09T16:48:43;23.70;5.00
10245;DHT22;5167;52.164;10.530;2022-09-09T16:51:15;23.70;5.00
10245;DHT22;5167;52.164;10.530;2022-09-09T16:53:41;23.70;5.00
10245;DHT22;5167;52.164;10.530;2022-09-09T16:56:12;23.70;5.00
10245;DHT22;5167;52.164;10.530;2022-09-09T16:58:38;23.70;5.00
10245;DHT22;5167;52.164;10.530;2022-09-09T17:01:04;23.70;5.00
10245;DHT22;5167;52.164;10.530;2022-09-09T17:03:31;23.70;5.00
10245;DHT22;5167;52.164;10.530;2022-09-09T17:05:57;23.70;5.00
10245;DHT22;5167;52.164;10.530;2022-09-09T17:08:24;23.70;5.00
10245;DHT22;5167;52.164;10.530;2022-09-09T17:10:50;23.60;5.00
10245;DHT22;5167;52.164;10.530;2022-09-09T17:13:16;23.60;5.00
10245;DHT22;5167;52.164;10.530;2022-09-09T17:15:45;23.60;5.00
10245;DHT22;5167;52.164;10.530;2022-09-09T17:18:12;23.60;5.00
10245;DHT22;5167;52.164;10.530;2022-09-09T17:20:39;23.60;5.00
10245;DHT22;5167;52.164;10.530;2022-09-09T17:23:07;23.50;5.00
10245;DHT22;5167;52.164;10.530;2022-09-09T17:25:33;23.50;5.00
10245;DHT22;5167;52.164;10.530;2022-09-09T17:27:59;23.40;5.00
10245;DHT22;5167;52.164;10.530;2022-09-09T17:30:26;23.50;5.00
10245;DHT22;5167;52.164;10.530;2022-09-09T17:32:51;23.40;5.00
10245;DHT22;5167;52.164;10.530;2022-09-09T17:35:17;23.30;5.00
10245;DHT22;5167;52.164;10.530;2022-09-09T17:37:43;23.30;5.00
10245;DHT22;5167;52.164;10.530;2022-09-09T17:40:10;23.20;5.00
10245;DHT22;5167;52.164;10.530;2022-09-09T17:42:36;23.20;5.00
10245;DHT22;5167;52.164;10.530;2022-09-09T17:45:01;23.10;5.00
10245;DHT22;5167;52.164;10.530;2022-09-09T17:47:27;23.10;5.00
10245;DHT22;5167;52.164;10.530;2022-09-09T17:49:56;23.10;5.00
10245;DHT22;5167;52.164;10.530;2022-09-09T17:52:22;23.00;5.00
10245;DHT22;5167;52.164;10.530;2022-09-09T17:54:48;22.90;5.00
10245;DHT22;5167;52.164;10.530;2022-09-09T17:57:15;22.90;5.00
10245;DHT22;5167;52.164;10.530;2022-09-09T17:59:42;22.90;5.00
10245;DHT22;5167;52.164;10.530;2022-09-09T18:02:10;22.80;5.00